createdAt,value
2022-12-03T05:15:37.584Z,100418.16
2022-12-03T05:18:04.125Z,100411.91
2022-12-03T05:20:45.698Z,100411.09
2022-12-03T05:23:16.218Z,100412.31
2022-12-03T05:25:42.745Z,100420.09
2022-12-03T05:28:09.234Z,100425.91
2022-12-03T05:30:35.893Z,100427.84
2022-12-03T05:33:02.608Z,100416.38
2022-12-03T05:35:29.132Z,100422.50
2022-12-03T05:37:55.585Z,100420.75
2022-12-03T05:40:22.237Z,100425.16
2022-12-03T05:42:54.745Z,100418.19
2022-12-03T05:45:32.743Z,100419.97
2022-12-03T05:48:00.333Z,100424.25
2022-12-03T05:50:31.589Z,100424.91
2022-12-03T05:52:58.605Z,100423.66
2022-12-03T05:55:26.269Z,100424.31
2022-12-03T05:57:53.025Z,100425.13
2022-12-03T06:00:25.742Z,100422.44
2022-12-03T06:02:53.325Z,100419.75
2022-12-03T06:05:20.676Z,100424.00
2022-12-03T06:07:49.323Z,100424.97
2022-12-03T06:10:19.248Z,100425.19
2022-12-03T06:12:45.923Z,100412.72
2022-12-03T06:15:14.043Z,100407.72
2022-12-03T06:17:41.210Z,100420.75
2022-12-03T06:20:13.925Z,100413.78
2022-12-03T06:22:40.562Z,100412.97
2022-12-03T06:25:07.677Z,100411.16
2022-12-03T06:27:34.196Z,100406.06
2022-12-03T06:30:00.642Z,100407.66
2022-12-03T06:32:27.052Z,100407.78
2022-12-03T06:34:53.714Z,100406.81
2022-12-03T06:37:20.338Z,100404.16
2022-12-03T06:39:46.847Z,100411.16
2022-12-03T06:42:13.298Z,100405.84
2022-12-03T06:44:39.751Z,100403.19
2022-12-03T06:47:06.272Z,100401.38
2022-12-03T06:49:32.951Z,100396.06
2022-12-03T06:51:59.412Z,100399.66
2022-12-03T06:54:25.904Z,100394.59
2022-12-03T06:56:52.364Z,100399.97
2022-12-03T06:59:18.802Z,100395.41
2022-12-03T07:01:45.365Z,100389.28
2022-12-03T07:04:12.086Z,100399.88
2022-12-03T07:06:44.694Z,100399.91
2022-12-03T07:09:11.253Z,100396.84
2022-12-03T07:11:40.599Z,100398.34
2022-12-03T07:14:08.819Z,100402.56
2022-12-03T07:16:36.100Z,100407.56
2022-12-03T07:19:04.798Z,100403.16
2022-12-03T07:21:31.649Z,100406.88
2022-12-03T07:24:03.364Z,100407.59
2022-12-03T07:26:29.864Z,100412.81
2022-12-03T07:28:56.333Z,100404.88
2022-12-03T07:31:23.128Z,100405.69
2022-12-03T07:33:49.600Z,100411.91
2022-12-03T07:36:16.063Z,100413.63
2022-12-03T07:38:42.602Z,100412.06
2022-12-03T07:41:09.259Z,100417.88
2022-12-03T07:43:36.735Z,100418.69
2022-12-03T07:46:03.272Z,100416.16
2022-12-03T07:48:29.783Z,100417.38
2022-12-03T07:50:56.277Z,100415.50
2022-12-03T07:53:22.789Z,100413.09
2022-12-03T07:55:49.253Z,100424.19
2022-12-03T07:58:22.920Z,100421.56
2022-12-03T08:00:49.400Z,100417.94
2022-12-03T08:03:15.913Z,100423.44
2022-12-03T08:05:42.414Z,100418.38
2022-12-03T08:08:08.895Z,100415.63
2022-12-03T08:10:35.379Z,100413.78
2022-12-03T08:13:06.638Z,100405.03
2022-12-03T08:15:39.036Z,100407.59
2022-12-03T08:18:32.855Z,100411.72
2022-12-03T08:20:59.430Z,100409.91
2022-12-03T08:23:27.810Z,100409.16
2022-12-03T08:25:54.330Z,100409.94
2022-12-03T08:28:23.642Z,100416.03
2022-12-03T08:31:19.906Z,100409.72
2022-12-03T08:33:49.318Z,100409.91
2022-12-03T08:36:23.064Z,100410.56
2022-12-03T08:38:52.470Z,100413.06
2022-12-03T08:41:40.761Z,100422.19
2022-12-03T08:44:28.947Z,100415.22
2022-12-03T08:47:02.139Z,100420.34
2022-12-03T08:49:28.579Z,100418.84
2022-12-03T08:51:59.726Z,100417.41
2022-12-03T08:54:27.489Z,100415.19
2022-12-03T08:56:54.599Z,100411.00
2022-12-03T08:59:30.563Z,100405.31
2022-12-03T09:01:58.503Z,100411.78
2022-12-03T09:04:45.155Z,100410.75
2022-12-03T09:07:11.735Z,100409.63
2022-12-03T09:09:39.270Z,100414.06
2022-12-03T09:12:05.977Z,100418.38
2022-12-03T09:14:32.388Z,100401.66
2022-12-03T09:16:58.903Z,100407.56
2022-12-03T09:19:27.247Z,100409.25
2022-12-03T09:21:55.803Z,100413.75
2022-12-03T09:24:22.584Z,100413.28
2022-12-03T09:26:49.523Z,100415.31
2022-12-03T09:29:15.962Z,100412.69
2022-12-03T09:31:42.497Z,100403.44
2022-12-03T09:34:11.093Z,100403.72
2022-12-03T09:36:37.850Z,100404.38
2022-12-03T09:39:04.702Z,100407.81
2022-12-03T09:41:31.333Z,100402.50
2022-12-03T09:44:05.855Z,100397.38
2022-12-03T09:46:36.250Z,100395.97
2022-12-03T09:49:06.070Z,100392.13
2022-12-03T09:51:36.580Z,100393.78
2022-12-03T09:54:05.641Z,100393.25
2022-12-03T09:56:37.637Z,100382.88
2022-12-03T09:59:14.015Z,100377.41
2022-12-03T10:01:40.613Z,100379.72
2022-12-03T10:04:07.604Z,100374.22
2022-12-03T10:06:34.144Z,100373.34
2022-12-03T10:09:00.821Z,100377.81
2022-12-03T10:11:29.758Z,100368.06
2022-12-03T10:13:58.578Z,100369.34
2022-12-03T10:16:25.777Z,100360.59
2022-12-03T10:18:55.136Z,100349.13
2022-12-03T10:21:34.731Z,100356.28
2022-12-03T10:24:20.434Z,100349.97
2022-12-03T10:26:48.526Z,100341.88
2022-12-03T10:29:19.347Z,100341.16
2022-12-03T10:31:53.825Z,100340.31
2022-12-03T10:34:27.511Z,100328.94
2022-12-03T10:37:10.362Z,100335.84
2022-12-03T10:39:58.403Z,100343.66
2022-12-03T10:42:34.025Z,100343.88
2022-12-03T10:45:21.034Z,100350.44
2022-12-03T10:48:27.480Z,100350.34
2022-12-03T10:50:56.818Z,100336.72
2022-12-03T10:53:28.423Z,100339.78
2022-12-03T10:55:59.590Z,100334.34
2022-12-03T10:58:29.226Z,100332.53
2022-12-03T11:00:58.792Z,100330.81
2022-12-03T11:03:27.795Z,100334.44
2022-12-03T11:05:55.980Z,100330.06
2022-12-03T11:08:27.817Z,100330.34
2022-12-03T11:11:03.798Z,100320.69
2022-12-03T11:13:44.743Z,100322.28
2022-12-03T11:16:12.274Z,100321.25
2022-12-03T11:18:44.135Z,100314.38
2022-12-03T11:21:12.983Z,100307.25
2022-12-03T11:23:45.661Z,100310.88
2022-12-03T11:26:18.639Z,100307.38
2022-12-03T11:28:46.000Z,100307.78
2022-12-03T11:31:42.302Z,100313.00
2022-12-03T11:34:17.874Z,100301.47
2022-12-03T11:37:09.378Z,100303.03
2022-12-03T11:39:45.376Z,100295.53
2022-12-03T11:42:25.268Z,100288.59
2022-12-03T11:45:04.053Z,100293.88
2022-12-03T11:47:39.536Z,100286.53
2022-12-03T11:50:21.362Z,100288.94
2022-12-03T11:53:07.474Z,100286.47
2022-12-03T11:55:37.891Z,100285.13
2022-12-03T11:58:14.851Z,100279.75
2022-12-03T12:00:51.997Z,100282.78
2022-12-03T12:03:29.576Z,100269.41
2022-12-03T12:06:09.989Z,100262.22
2022-12-03T12:08:42.294Z,100265.66
2022-12-03T12:11:34.961Z,100253.19
2022-12-03T12:14:06.000Z,100245.50
2022-12-03T12:16:55.922Z,100247.25
2022-12-03T12:19:35.358Z,100240.06
2022-12-03T12:22:29.667Z,100241.47
2022-12-03T12:25:01.375Z,100240.97
2022-12-03T12:27:35.449Z,100233.69
2022-12-03T12:30:18.385Z,100244.03
2022-12-03T12:32:54.015Z,100236.78
2022-12-03T12:35:27.760Z,100237.28
2022-12-03T12:38:06.489Z,100236.56
2022-12-03T12:40:35.640Z,100233.09
2022-12-03T12:43:15.253Z,100226.66
2022-12-03T12:45:43.676Z,100229.38
2022-12-03T12:48:10.140Z,100232.94
2022-12-03T12:50:38.230Z,100241.09
2022-12-03T12:53:11.173Z,100233.69
2022-12-03T12:55:38.632Z,100244.78
2022-12-03T12:58:15.094Z,100238.94
2022-12-03T13:00:42.591Z,100238.66
2022-12-03T13:03:12.663Z,100234.16
2022-12-03T13:05:42.296Z,100228.28
2022-12-03T13:08:28.517Z,100231.00
2022-12-03T13:10:59.724Z,100234.75
2022-12-03T13:13:29.208Z,100231.88
2022-12-03T13:16:06.968Z,100236.38
2022-12-03T13:18:56.267Z,100241.06
2022-12-03T13:21:32.811Z,100236.03
2022-12-03T13:24:00.697Z,100230.09
2022-12-03T13:26:39.824Z,100237.25
2022-12-03T13:29:13.487Z,100234.75
2022-12-03T13:31:44.113Z,100239.63
2022-12-03T13:34:19.348Z,100229.06
2022-12-03T13:36:52.009Z,100228.59
2022-12-03T13:39:30.080Z,100220.78
2022-12-03T13:42:16.394Z,100223.88
2022-12-03T13:44:45.806Z,100225.75
2022-12-03T13:47:20.685Z,100217.34
2022-12-03T13:49:57.164Z,100221.81
2022-12-03T13:52:25.604Z,100219.22
2022-12-03T13:54:55.025Z,100214.63
2022-12-03T13:57:22.005Z,100206.38
2022-12-03T13:59:48.633Z,100209.09
2022-12-03T14:02:15.264Z,100202.47
2022-12-03T14:04:41.956Z,100209.00
2022-12-03T14:07:29.045Z,100212.25
2022-12-03T14:09:56.070Z,100202.63
2022-12-03T14:12:25.716Z,100207.47
2022-12-03T14:14:52.890Z,100200.59
2022-12-03T14:17:19.426Z,100208.13
2022-12-03T14:19:53.247Z,100204.69
2022-12-03T14:22:23.653Z,100203.00
2022-12-03T14:24:50.955Z,100206.72
2022-12-03T14:27:20.407Z,100197.47
2022-12-03T14:29:47.047Z,100201.13
2022-12-03T14:32:13.905Z,100202.00
2022-12-03T14:34:40.488Z,100194.97
2022-12-03T14:37:07.068Z,100204.13
2022-12-03T14:39:33.706Z,100204.59
2022-12-03T14:42:15.575Z,100203.69
2022-12-03T14:44:52.240Z,100200.81
2022-12-03T14:47:22.565Z,100206.91
2022-12-03T14:49:49.617Z,100197.31
2022-12-03T14:52:16.154Z,100193.03
2022-12-03T14:54:43.173Z,100189.69
2022-12-03T14:57:12.582Z,100192.69
2022-12-03T14:59:43.236Z,100193.25
2022-12-03T15:02:10.890Z,100189.84
2022-12-03T15:04:38.243Z,100198.75
2022-12-03T15:07:05.721Z,100197.22
2022-12-03T15:09:32.441Z,100199.78
2022-12-03T15:12:00.263Z,100202.16
2022-12-03T15:14:27.027Z,100206.34
2022-12-03T15:16:53.594Z,100201.97
2022-12-03T15:19:20.189Z,100210.56
2022-12-03T15:21:46.717Z,100213.56
2022-12-03T15:24:13.323Z,100216.84
2022-12-03T15:26:39.861Z,100217.75
2022-12-03T15:29:06.363Z,100219.38
2022-12-03T15:31:33.058Z,100212.13
2022-12-03T15:33:59.759Z,100206.75
2022-12-03T15:36:26.951Z,100213.34
2022-12-03T15:38:53.611Z,100207.28
2022-12-03T15:41:29.628Z,100212.88
2022-12-03T15:43:58.338Z,100206.03
2022-12-03T15:46:25.416Z,100206.88
2022-12-03T15:48:52.627Z,100208.88
2022-12-03T15:51:19.140Z,100206.59
2022-12-03T15:53:45.976Z,100206.22
2022-12-03T15:56:13.148Z,100210.16
2022-12-03T15:58:40.733Z,100212.00
2022-12-03T16:01:08.319Z,100216.59
2022-12-03T16:03:37.404Z,100211.25
2022-12-03T16:06:04.227Z,100212.50
2022-12-03T16:08:31.029Z,100211.66
2022-12-03T16:11:56.407Z,100214.19
2022-12-03T16:14:23.277Z,100220.84
2022-12-03T16:16:59.061Z,100220.09
2022-12-03T16:19:29.126Z,100221.53
2022-12-03T16:21:57.582Z,100214.84
2022-12-03T16:24:24.658Z,100219.16
2022-12-03T16:26:51.232Z,100222.09
2022-12-03T16:29:17.961Z,100213.47
2022-12-03T16:31:46.044Z,100211.84
2022-12-03T16:34:18.742Z,100218.25
2022-12-03T16:37:13.202Z,100217.59
2022-12-03T16:39:47.554Z,100216.84
2022-12-03T16:42:17.281Z,100211.56
2022-12-03T16:44:59.346Z,100203.19
2022-12-03T16:47:30.586Z,100210.22
2022-12-03T16:50:21.837Z,100204.34
2022-12-03T16:52:54.120Z,100198.91
2022-12-03T16:55:20.781Z,100204.75
2022-12-03T16:57:47.242Z,100199.41
2022-12-03T17:00:14.354Z,100201.50
2022-12-03T17:02:41.002Z,100194.69
2022-12-03T17:05:08.073Z,100192.34
2022-12-03T17:07:34.711Z,100199.28
2022-12-03T17:10:01.339Z,100198.09
2022-12-03T17:12:42.292Z,100194.00
2022-12-03T17:15:14.523Z,100197.06
2022-12-03T17:17:41.028Z,100192.97
2022-12-03T17:20:08.368Z,100195.50
2022-12-03T17:22:35.351Z,100190.34
2022-12-03T17:25:01.990Z,100182.84
2022-12-03T17:27:29.571Z,100184.94
2022-12-03T17:29:56.285Z,100184.66
2022-12-03T17:32:22.835Z,100183.88
2022-12-03T17:34:49.308Z,100180.03
2022-12-03T17:37:15.761Z,100185.72
2022-12-03T17:39:42.218Z,100179.00
2022-12-03T17:42:08.645Z,100179.28
2022-12-03T17:44:35.128Z,100166.41
2022-12-03T17:47:01.698Z,100174.59
2022-12-03T17:49:31.573Z,100175.38
2022-12-03T17:51:58.428Z,100172.28
2022-12-03T17:54:34.110Z,100179.13
2022-12-03T17:57:11.461Z,100173.19
2022-12-03T17:59:37.910Z,100172.69
2022-12-03T18:02:04.512Z,100176.25
2022-12-03T18:04:31.231Z,100165.72
2022-12-03T18:07:02.332Z,100168.22
2022-12-03T18:09:29.185Z,100170.94
2022-12-03T18:11:55.684Z,100169.84
2022-12-03T18:14:22.107Z,100170.59
2022-12-03T18:16:48.608Z,100175.38
2022-12-03T18:19:15.117Z,100170.94
2022-12-03T18:21:41.590Z,100163.66
2022-12-03T18:24:08.405Z,100172.97
2022-12-03T18:26:35.648Z,100175.28
2022-12-03T18:29:02.091Z,100169.50
2022-12-03T18:31:28.663Z,100165.88
2022-12-03T18:33:55.197Z,100162.72
2022-12-03T18:36:33.501Z,100171.19
2022-12-03T18:39:01.003Z,100169.41
2022-12-03T18:41:27.742Z,100162.63
2022-12-03T18:43:54.560Z,100168.63
2022-12-03T18:49:09.744Z,100165.00
2022-12-03T18:51:36.521Z,100164.69
2022-12-03T18:54:03.216Z,100162.09
2022-12-03T18:56:29.688Z,100158.16
2022-12-03T18:58:56.221Z,100151.72
2022-12-03T19:01:23.082Z,100157.22
2022-12-03T19:03:50.308Z,100158.97
2022-12-03T19:06:21.017Z,100157.25
2022-12-03T19:08:54.084Z,100164.50
2022-12-03T19:11:21.738Z,100156.84
2022-12-03T19:13:48.486Z,100153.06
2022-12-03T19:16:17.023Z,100143.34
2022-12-03T19:18:44.580Z,100157.47
2022-12-03T19:21:14.071Z,100152.69
2022-12-03T19:23:40.607Z,100148.34
2022-12-03T19:26:09.594Z,100149.09
2022-12-03T19:28:36.484Z,100145.50
2022-12-03T19:31:06.231Z,100143.47
2022-12-03T19:33:33.853Z,100137.72
2022-12-03T19:36:02.507Z,100143.72
2022-12-03T19:38:30.175Z,100141.78
2022-12-03T19:41:02.802Z,100147.03
2022-12-03T19:43:31.643Z,100141.16
2022-12-03T19:46:10.091Z,100151.94
2022-12-03T19:48:38.989Z,100148.53
2022-12-03T19:51:32.547Z,100143.88
2022-12-03T19:53:53.786Z,100138.69
2022-12-03T19:56:20.288Z,100140.09
2022-12-03T19:58:47.123Z,100144.44
2022-12-03T20:01:16.878Z,100130.41
2022-12-03T20:03:45.967Z,100132.22
2022-12-03T20:06:14.687Z,100137.84
2022-12-03T20:08:41.630Z,100138.50
2022-12-03T20:11:09.250Z,100134.09
2022-12-03T20:13:36.674Z,100130.69
2022-12-03T20:16:08.705Z,100137.63
2022-12-03T20:18:37.647Z,100136.09
2022-12-03T20:21:04.208Z,100129.16
2022-12-03T20:23:30.649Z,100141.31
2022-12-03T20:25:57.544Z,100139.56
2022-12-03T20:28:24.758Z,100139.59
2022-12-03T20:31:02.766Z,100141.97
2022-12-03T20:33:29.688Z,100142.38
2022-12-03T20:35:56.960Z,100144.53
2022-12-03T20:38:24.535Z,100145.31
2022-12-03T20:41:04.918Z,100144.28
2022-12-03T20:43:31.606Z,100144.28
2022-12-03T20:46:19.059Z,100141.38
2022-12-03T20:48:46.030Z,100136.03
2022-12-03T20:51:16.202Z,100130.78
2022-12-03T20:53:43.610Z,100131.72
2022-12-03T20:56:10.578Z,100126.66
2022-12-03T20:58:37.420Z,100127.09
2022-12-03T21:01:15.669Z,100127.44
2022-12-03T21:03:43.324Z,100123.19
2022-12-03T21:06:10.280Z,100121.41
2022-12-03T21:08:41.613Z,100121.50
2022-12-03T21:11:11.836Z,100123.88
2022-12-03T21:13:41.492Z,100122.66
2022-12-03T21:16:10.619Z,100122.94
2022-12-03T21:18:37.234Z,100125.53
2022-12-03T21:21:03.981Z,100118.22
2022-12-03T21:23:31.992Z,100119.06
2022-12-03T21:26:07.828Z,100115.41
2022-12-03T21:28:34.545Z,100105.78
2022-12-03T21:31:06.786Z,100110.81
2022-12-03T21:33:34.034Z,100102.63
2022-12-03T21:36:00.990Z,100102.28
2022-12-03T21:38:28.820Z,100103.19
2022-12-03T21:40:56.276Z,100103.34
2022-12-03T21:43:23.159Z,100116.31
2022-12-03T21:45:49.951Z,100113.06
2022-12-03T21:48:17.366Z,100102.28
2022-12-03T21:50:44.466Z,100111.47
2022-12-03T21:53:11.198Z,100113.91
2022-12-03T21:55:41.305Z,100113.13
2022-12-03T21:58:08.752Z,100117.59
2022-12-03T22:00:35.675Z,100113.47
2022-12-03T22:03:02.247Z,100113.97
2022-12-03T22:05:28.799Z,100112.34
2022-12-03T22:07:55.293Z,100109.75
2022-12-03T22:10:21.839Z,100110.41
2022-12-03T22:12:48.287Z,100113.13
2022-12-03T22:15:18.745Z,100109.16
2022-12-03T22:17:45.901Z,100099.88
2022-12-03T22:20:15.859Z,100100.72
2022-12-03T22:22:42.304Z,100101.06
2022-12-03T22:25:08.951Z,100101.31
2022-12-03T22:27:35.619Z,100089.44
2022-12-03T22:30:03.142Z,100103.31
2022-12-03T22:32:29.652Z,100108.00
2022-12-03T22:34:56.138Z,100106.31
2022-12-03T22:37:22.881Z,100106.63
2022-12-03T22:39:49.339Z,100103.13
2022-12-03T22:42:15.792Z,100101.78
2022-12-03T22:44:42.277Z,100103.84
2022-12-03T22:47:08.917Z,100096.91
2022-12-03T22:49:35.409Z,100103.22
2022-12-03T22:52:02.071Z,100093.38
2022-12-03T22:54:28.691Z,100095.06
2022-12-03T22:56:55.249Z,100087.06
2022-12-03T22:59:21.773Z,100086.97
